createdAt,value
2022-12-09T00:00:37.020Z,0.19
2022-12-09T00:03:03.660Z,0.19
2022-12-09T00:05:30.476Z,0.21
2022-12-09T00:07:57.066Z,0.22
2022-12-09T00:10:23.770Z,0.34
2022-12-09T00:12:54.096Z,0.43
2022-12-09T00:15:20.550Z,0.28
2022-12-09T00:17:47.009Z,0.27
2022-12-09T00:20:13.630Z,0.21
2022-12-09T00:22:40.311Z,0.19
2022-12-09T00:25:07.317Z,0.42
2022-12-09T00:27:34.360Z,0.50
2022-12-09T00:30:00.849Z,0.36
2022-12-09T00:32:27.356Z,0.28
2022-12-09T00:34:53.912Z,0.28
2022-12-09T00:37:21.040Z,0.24
2022-12-09T00:39:47.867Z,0.25
2022-12-09T00:42:14.354Z,0.30
2022-12-09T00:44:40.923Z,0.44
2022-12-09T00:47:07.468Z,0.51
2022-12-09T00:49:34.188Z,0.50
2022-12-09T00:52:00.687Z,0.41
2022-12-09T00:54:27.218Z,0.34
2022-12-09T00:56:53.787Z,0.35
2022-12-09T00:59:20.625Z,0.30
2022-12-09T01:01:47.385Z,0.19
2022-12-09T01:04:14.110Z,0.14
2022-12-09T01:06:41.664Z,0.12
2022-12-09T01:09:08.195Z,0.13
2022-12-09T01:11:34.968Z,0.18
2022-12-09T01:14:02.228Z,0.22
2022-12-09T01:16:30.662Z,0.28
2022-12-09T01:18:59.520Z,0.29
2022-12-09T01:21:27.420Z,0.33
2022-12-09T01:23:54.154Z,0.29
2022-12-09T01:26:20.925Z,0.26
2022-12-09T01:28:51.268Z,0.28
2022-12-09T01:31:19.359Z,0.32
2022-12-09T01:33:45.929Z,0.34
2022-12-09T01:36:17.492Z,0.33
2022-12-09T01:38:44.438Z,0.35
2022-12-09T01:41:10.926Z,0.32
2022-12-09T01:43:42.081Z,0.33
2022-12-09T01:46:08.729Z,0.30
2022-12-09T01:48:37.697Z,0.30
2022-12-09T01:51:12.434Z,0.32
2022-12-09T01:53:40.018Z,0.27
2022-12-09T01:56:08.709Z,0.25
2022-12-09T01:58:35.292Z,0.25
2022-12-09T02:01:01.893Z,0.24
2022-12-09T02:03:28.857Z,0.43
2022-12-09T02:05:55.604Z,0.37
2022-12-09T02:08:22.126Z,0.28
2022-12-09T02:10:55.185Z,0.47
2022-12-09T02:13:29.337Z,0.47
2022-12-09T02:15:57.986Z,0.28
2022-12-09T02:18:32.394Z,0.24
2022-12-09T02:21:10.654Z,0.24
2022-12-09T02:23:44.798Z,0.22
2022-12-09T02:26:27.656Z,0.14
2022-12-09T02:29:18.989Z,0.15
2022-12-09T02:31:48.601Z,0.07
2022-12-09T02:34:22.238Z,0.15
2022-12-09T02:36:54.032Z,0.09
2022-12-09T02:39:25.022Z,0.07
2022-12-09T02:41:51.516Z,0.12
2022-12-09T02:44:19.408Z,0.16
2022-12-09T02:46:46.004Z,0.14
2022-12-09T02:49:12.985Z,0.17
2022-12-09T02:51:42.440Z,0.21
2022-12-09T02:54:11.948Z,0.14
2022-12-09T02:56:39.280Z,0.18
2022-12-09T02:59:05.941Z,0.18
2022-12-09T03:01:36.856Z,0.20
2022-12-09T03:04:03.933Z,0.28
2022-12-09T03:06:34.281Z,0.24
2022-12-09T03:09:02.809Z,0.21
2022-12-09T03:11:29.324Z,0.26
2022-12-09T03:14:06.880Z,0.26
2022-12-09T03:16:35.887Z,0.22
2022-12-09T03:19:12.861Z,0.25
2022-12-09T03:21:42.749Z,0.22
2022-12-09T03:24:10.430Z,0.17
2022-12-09T03:26:37.410Z,0.18
2022-12-09T03:29:06.446Z,0.20
2022-12-09T03:31:33.504Z,0.23
2022-12-09T03:34:01.398Z,0.23
2022-12-09T03:36:29.378Z,0.23
2022-12-09T03:38:56.264Z,0.18
2022-12-09T03:41:30.467Z,0.15
2022-12-09T03:44:14.090Z,0.13
2022-12-09T03:46:41.065Z,0.10
2022-12-09T03:49:07.955Z,-0.10
2022-12-09T03:51:50.356Z,-0.14
2022-12-09T03:54:28.949Z,0.03
2022-12-09T03:56:57.010Z,-0.08
2022-12-09T03:59:25.040Z,-0.12
2022-12-09T04:01:51.734Z,-0.21
2022-12-09T04:04:18.737Z,-0.19
2022-12-09T04:06:45.455Z,-0.27
2022-12-09T04:09:12.171Z,-0.27
2022-12-09T04:11:39.218Z,-0.29
2022-12-09T04:14:09.154Z,-0.17
2022-12-09T04:16:38.976Z,-0.20
2022-12-09T04:19:05.892Z,-0.21
2022-12-09T04:21:33.020Z,-0.19
2022-12-09T04:23:59.638Z,-0.21
2022-12-09T04:26:26.128Z,-0.24
2022-12-09T04:28:52.662Z,-0.19
2022-12-09T04:31:19.802Z,-0.17
2022-12-09T04:33:46.533Z,-0.18
2022-12-09T04:36:14.707Z,-0.23
2022-12-09T04:38:41.564Z,-0.29
2022-12-09T04:41:08.122Z,-0.29
2022-12-09T04:43:35.044Z,-0.19
2022-12-09T04:46:02.952Z,-0.31
2022-12-09T04:48:29.545Z,-0.26
2022-12-09T04:50:56.175Z,-0.43
2022-12-09T04:53:22.693Z,-0.53
2022-12-09T04:55:49.212Z,-0.44
2022-12-09T04:58:16.086Z,-0.52
2022-12-09T05:00:42.673Z,-0.65
2022-12-09T05:03:09.365Z,-0.54
2022-12-09T05:05:40.138Z,-0.54
2022-12-09T05:08:07.279Z,-0.73
2022-12-09T05:10:34.080Z,-0.83
2022-12-09T05:13:01.473Z,-0.85
2022-12-09T05:15:28.441Z,-0.80
2022-12-09T05:17:55.494Z,-0.84
2022-12-09T05:20:22.544Z,-0.94
2022-12-09T05:22:49.388Z,-0.96
2022-12-09T05:25:16.327Z,-1.02
2022-12-09T05:27:42.917Z,-1.00
2022-12-09T05:30:10.281Z,-0.99
2022-12-09T05:32:37.212Z,-0.90
2022-12-09T05:35:04.512Z,-0.87
2022-12-09T05:37:31.301Z,-0.75
2022-12-09T05:39:58.212Z,-0.73
2022-12-09T05:42:24.817Z,-0.74
2022-12-09T05:44:51.461Z,-0.74
2022-12-09T05:47:18.425Z,-0.72
2022-12-09T05:49:45.386Z,-0.65
2022-12-09T05:52:14.487Z,-0.69
2022-12-09T05:54:41.630Z,-0.64
2022-12-09T05:57:08.652Z,-0.66
2022-12-09T05:59:35.499Z,-0.62
2022-12-09T06:02:06.888Z,-0.58
2022-12-09T06:04:36.801Z,-0.51
2022-12-09T06:07:03.763Z,-0.49
2022-12-09T06:09:30.754Z,-0.46
2022-12-09T06:11:57.566Z,-0.42
2022-12-09T06:14:24.690Z,-0.34
2022-12-09T06:16:51.822Z,-0.38
2022-12-09T06:19:18.932Z,-0.36
2022-12-09T06:21:45.618Z,-0.36
2022-12-09T06:24:12.387Z,-0.39
2022-12-09T06:26:38.924Z,-0.38
2022-12-09T06:29:05.447Z,-0.40
2022-12-09T06:31:33.448Z,-0.39
2022-12-09T06:34:01.203Z,-0.43
2022-12-09T06:36:29.185Z,-0.41
2022-12-09T06:38:57.555Z,-0.40
2022-12-09T06:41:24.491Z,-0.46
2022-12-09T06:43:51.455Z,-0.47
2022-12-09T06:46:20.418Z,-0.46
2022-12-09T06:48:47.310Z,-0.38
2022-12-09T06:51:15.039Z,-0.34
2022-12-09T06:53:41.677Z,-0.38
2022-12-09T06:56:12.203Z,-0.48
2022-12-09T06:58:40.622Z,-0.47
2022-12-09T07:01:21.669Z,-0.43
2022-12-09T07:03:50.301Z,-0.45
2022-12-09T07:06:29.883Z,-0.45
2022-12-09T07:08:59.003Z,-0.36
2022-12-09T07:11:25.739Z,-0.36
2022-12-09T07:13:52.392Z,-0.35
2022-12-09T07:16:19.363Z,-0.32
2022-12-09T07:18:46.237Z,-0.20
2022-12-09T07:21:14.524Z,-0.28
2022-12-09T07:23:41.512Z,-0.26
2022-12-09T07:26:08.226Z,-0.40
2022-12-09T07:28:35.786Z,-0.43
2022-12-09T07:31:03.118Z,-0.39
2022-12-09T07:33:30.332Z,-0.35
2022-12-09T07:35:57.730Z,-0.31
2022-12-09T07:38:25.689Z,-0.31
2022-12-09T07:40:52.862Z,-0.32
2022-12-09T07:43:19.816Z,-0.27
2022-12-09T07:45:46.596Z,-0.21
2022-12-09T07:48:13.653Z,-0.23
2022-12-09T07:50:40.285Z,-0.31
2022-12-09T07:53:06.872Z,-0.38
2022-12-09T07:55:33.874Z,-0.40
2022-12-09T07:58:00.886Z,-0.36
2022-12-09T08:00:27.949Z,-0.36
2022-12-09T08:02:54.663Z,-0.31
2022-12-09T08:05:21.842Z,-0.30
2022-12-09T08:07:49.383Z,-0.22
2022-12-09T08:10:16.565Z,-0.19
2022-12-09T08:12:43.239Z,-0.12
2022-12-09T08:15:10.617Z,-0.02
2022-12-09T08:17:37.432Z,-0.06
2022-12-09T08:20:05.290Z,0.14
2022-12-09T08:22:32.483Z,0.02
2022-12-09T08:24:59.534Z,-0.02
2022-12-09T08:27:26.143Z,-0.01
2022-12-09T08:29:52.881Z,-0.01
2022-12-09T08:32:19.478Z,0.05
2022-12-09T08:34:46.192Z,0.11
2022-12-09T08:37:13.418Z,0.09
2022-12-09T08:39:39.977Z,0.11
2022-12-09T08:42:07.443Z,0.11
2022-12-09T08:44:34.277Z,0.18
2022-12-09T08:47:01.138Z,0.13
2022-12-09T08:49:29.810Z,0.19
2022-12-09T08:51:56.820Z,0.14
2022-12-09T08:54:23.448Z,0.18
2022-12-09T08:56:52.188Z,0.28
2022-12-09T08:59:19.366Z,0.28
2022-12-09T09:01:46.500Z,0.23
2022-12-09T09:04:15.272Z,0.21
2022-12-09T09:06:43.517Z,0.26
2022-12-09T09:09:11.035Z,0.34
2022-12-09T09:11:38.534Z,0.36
2022-12-09T09:14:06.658Z,0.45
2022-12-09T09:16:33.863Z,0.42
2022-12-09T09:19:01.194Z,0.46
2022-12-09T09:21:27.889Z,0.42
2022-12-09T09:23:54.816Z,0.36
2022-12-09T09:26:22.857Z,0.29
2022-12-09T09:28:49.694Z,0.40
2022-12-09T09:31:18.402Z,0.43
2022-12-09T09:33:45.357Z,0.47
2022-12-09T09:36:14.893Z,0.51
2022-12-09T09:38:41.763Z,0.54
2022-12-09T09:41:34.156Z,0.57
2022-12-09T09:44:01.073Z,0.66
2022-12-09T09:46:34.449Z,0.71
2022-12-09T09:49:01.593Z,0.61
2022-12-09T09:51:28.605Z,0.65
2022-12-09T09:53:55.551Z,0.71
2022-12-09T09:56:31.486Z,0.67
2022-12-09T09:59:21.291Z,0.72
2022-12-09T10:02:11.619Z,0.77
2022-12-09T10:04:51.223Z,0.73
2022-12-09T10:07:31.338Z,0.77
2022-12-09T10:10:15.045Z,0.63
2022-12-09T10:12:44.382Z,0.79
2022-12-09T10:15:20.857Z,0.75
2022-12-09T10:17:56.360Z,0.84
2022-12-09T10:20:28.645Z,0.80
2022-12-09T10:23:06.932Z,0.81
2022-12-09T10:25:35.874Z,0.60
2022-12-09T10:28:27.708Z,0.58
2022-12-09T10:30:54.947Z,0.55
2022-12-09T10:33:29.471Z,0.34
2022-12-09T10:35:56.889Z,0.44
2022-12-09T10:38:23.693Z,0.52
2022-12-09T10:41:05.085Z,0.53
2022-12-09T10:43:35.230Z,0.55
2022-12-09T10:46:20.001Z,0.43
2022-12-09T10:48:47.877Z,0.50
2022-12-09T10:51:29.222Z,0.42
2022-12-09T10:54:33.599Z,0.51
2022-12-09T10:57:07.607Z,0.47
2022-12-09T10:59:35.377Z,0.50
2022-12-09T11:02:22.288Z,0.54
2022-12-09T11:04:49.486Z,0.60
2022-12-09T11:07:17.469Z,0.63
2022-12-09T11:09:52.205Z,0.56
2022-12-09T11:12:30.838Z,0.57
2022-12-09T11:15:04.401Z,0.51
2022-12-09T11:17:39.960Z,0.46
2022-12-09T11:20:07.542Z,0.47
2022-12-09T11:22:40.318Z,0.48
2022-12-09T11:25:24.941Z,0.51
2022-12-09T11:27:57.066Z,0.49
2022-12-09T11:30:57.433Z,0.49
2022-12-09T11:33:27.298Z,0.36
2022-12-09T11:35:57.311Z,0.54
2022-12-09T11:38:31.404Z,0.57
2022-12-09T11:41:13.331Z,0.81
2022-12-09T11:43:39.833Z,0.85
2022-12-09T11:46:27.925Z,0.74
2022-12-09T11:48:58.318Z,0.72
2022-12-09T11:51:38.298Z,0.77
2022-12-09T11:54:27.947Z,0.81
2022-12-09T11:56:54.670Z,0.82
2022-12-09T11:59:23.820Z,0.82
2022-12-09T12:02:06.051Z,0.84
2022-12-09T12:04:39.832Z,0.77
2022-12-09T12:07:11.178Z,0.79
2022-12-09T12:09:44.620Z,0.84
2022-12-09T12:12:19.349Z,0.89
2022-12-09T12:14:47.054Z,0.79
2022-12-09T12:17:30.277Z,0.83
2022-12-09T12:19:57.542Z,1.03
2022-12-09T12:22:54.286Z,0.99
2022-12-09T12:25:27.181Z,0.91
2022-12-09T12:28:10.013Z,0.90
2022-12-09T12:30:45.855Z,0.86
2022-12-09T12:34:00.588Z,0.85
2022-12-09T12:36:22.653Z,0.79
2022-12-09T12:39:00.139Z,0.88
2022-12-09T12:41:56.163Z,0.91
2022-12-09T12:44:54.374Z,1.01
2022-12-09T12:47:40.510Z,0.99
2022-12-09T12:50:31.298Z,0.96
2022-12-09T12:53:03.842Z,0.92
2022-12-09T12:55:39.634Z,0.90
2022-12-09T12:58:14.064Z,1.03
2022-12-09T13:00:52.603Z,1.03
2022-12-09T13:03:26.707Z,0.88
2022-12-09T13:05:54.668Z,0.84
2022-12-09T13:08:46.191Z,0.88
2022-12-09T13:11:22.333Z,0.92
2022-12-09T13:13:52.761Z,1.00
2022-12-09T13:16:34.780Z,1.03
2022-12-09T13:19:16.526Z,0.95
2022-12-09T13:21:46.119Z,1.01
2022-12-09T13:24:37.759Z,1.04
2022-12-09T13:27:22.471Z,1.31
2022-12-09T13:30:10.131Z,1.24
2022-12-09T13:33:01.957Z,1.16
2022-12-09T13:36:06.225Z,1.11
2022-12-09T13:38:39.622Z,0.99
2022-12-09T13:41:31.083Z,1.01
2022-12-09T13:44:05.465Z,1.04
2022-12-09T13:46:32.052Z,1.03
2022-12-09T13:48:58.826Z,1.03
2022-12-09T13:51:27.463Z,0.98
2022-12-09T13:54:01.154Z,0.97
2022-12-09T13:56:28.686Z,0.99
2022-12-09T13:59:21.229Z,0.97
2022-12-09T14:01:50.144Z,0.97
2022-12-09T14:04:23.205Z,0.89
2022-12-09T14:06:56.304Z,0.98
2022-12-09T14:09:49.032Z,0.85
2022-12-09T14:12:44.051Z,0.88
2022-12-09T14:15:23.081Z,0.94
2022-12-09T14:17:49.513Z,0.87
2022-12-09T14:20:22.987Z,0.92
2022-12-09T14:23:07.692Z,0.90
2022-12-09T14:25:34.033Z,1.04
2022-12-09T14:28:09.266Z,1.00
2022-12-09T14:31:04.822Z,0.78
2022-12-09T14:33:42.580Z,0.66
2022-12-09T14:36:23.222Z,0.61
2022-12-09T14:39:23.195Z,0.54
2022-12-09T14:42:01.345Z,0.50
2022-12-09T14:44:33.801Z,0.48
2022-12-09T14:47:17.057Z,0.48
2022-12-09T14:52:31.797Z,0.22
2022-12-09T14:55:00.294Z,0.42
2022-12-09T14:57:28.921Z,0.28
2022-12-09T14:59:56.082Z,0.12
2022-12-09T15:02:26.411Z,0.03
2022-12-09T15:04:53.648Z,0.08
2022-12-09T15:07:27.623Z,0.13
2022-12-09T15:10:01.093Z,0.03
2022-12-09T15:12:41.312Z,-0.05
2022-12-09T15:15:10.756Z,-0.02
2022-12-09T15:17:46.619Z,-0.25
2022-12-09T15:20:30.743Z,-0.26
2022-12-09T15:22:59.382Z,-0.19
2022-12-09T15:25:25.924Z,-0.24
2022-12-09T15:27:57.100Z,-0.27
2022-12-09T15:30:27.191Z,-0.27
2022-12-09T15:32:53.656Z,-0.27
2022-12-09T15:35:23.560Z,-0.21
2022-12-09T15:37:50.296Z,-0.18
2022-12-09T15:40:19.062Z,-0.13
2022-12-09T15:42:46.627Z,-0.13
2022-12-09T15:45:15.303Z,-0.15
2022-12-09T15:47:44.801Z,-0.16
2022-12-09T15:50:15.663Z,-0.14
2022-12-09T15:52:54.883Z,-0.15
2022-12-09T15:55:31.192Z,-0.18
2022-12-09T15:57:58.003Z,-0.19
2022-12-09T16:00:24.680Z,-0.21
2022-12-09T16:02:51.296Z,-0.27
2022-12-09T16:05:22.628Z,-0.31
2022-12-09T16:07:57.322Z,-0.32
2022-12-09T16:10:26.619Z,-0.38
2022-12-09T16:13:10.818Z,-0.42
2022-12-09T16:16:22.206Z,-0.47
2022-12-09T16:18:52.032Z,-0.54
2022-12-09T16:21:23.549Z,-0.52
2022-12-09T16:23:52.773Z,-0.56
2022-12-09T16:26:32.128Z,-0.62
2022-12-09T16:29:02.225Z,-0.56
2022-12-09T16:31:28.720Z,-0.65
2022-12-09T16:33:55.434Z,-0.64
2022-12-09T16:36:27.294Z,-0.54
2022-12-09T16:39:23.017Z,-0.64
2022-12-09T16:41:52.454Z,-0.62
2022-12-09T16:44:29.745Z,-0.76
2022-12-09T16:47:16.346Z,-0.76
2022-12-09T16:49:45.990Z,-0.77
2022-12-09T16:52:23.071Z,-0.89
2022-12-09T16:54:49.685Z,-0.93
2022-12-09T16:57:17.345Z,-0.94
2022-12-09T16:59:44.338Z,-1.03
2022-12-09T17:02:14.816Z,-1.00
2022-12-09T17:04:41.335Z,-1.03
2022-12-09T17:07:08.288Z,-1.00
2022-12-09T17:09:34.769Z,-1.11
2022-12-09T17:12:01.409Z,-1.22
2022-12-09T17:14:27.989Z,-1.12
2022-12-09T17:16:54.510Z,-1.11
2022-12-09T17:19:20.998Z,-1.20
2022-12-09T17:21:47.756Z,-1.22
2022-12-09T17:24:14.410Z,-1.28
2022-12-09T17:26:40.914Z,-1.35
2022-12-09T17:29:07.447Z,-1.29
2022-12-09T17:31:33.961Z,-1.14
2022-12-09T17:34:00.532Z,-1.14
2022-12-09T17:36:27.355Z,-1.13
2022-12-09T17:38:53.844Z,-1.27
2022-12-09T17:41:23.487Z,-1.44
2022-12-09T17:43:49.993Z,-1.54
2022-12-09T17:46:16.660Z,-1.39
2022-12-09T17:48:43.426Z,-1.38
2022-12-09T17:51:11.978Z,-1.33
2022-12-09T17:53:39.532Z,-1.41
2022-12-09T17:56:13.373Z,-1.43
2022-12-09T17:58:39.895Z,-1.41
2022-12-09T18:01:13.259Z,-1.42
2022-12-09T18:03:55.402Z,-1.48
2022-12-09T18:06:22.794Z,-1.51
2022-12-09T18:08:49.253Z,-1.72
2022-12-09T18:11:15.696Z,-2.02
2022-12-09T18:13:42.145Z,-2.04
2022-12-09T18:16:09.978Z,-1.81
2022-12-09T18:18:37.299Z,-1.76
2022-12-09T18:21:03.836Z,-1.69
2022-12-09T18:23:30.306Z,-1.78
2022-12-09T18:25:57.613Z,-1.79
2022-12-09T18:28:27.563Z,-1.72
2022-12-09T18:30:54.979Z,-1.82
2022-12-09T18:33:22.550Z,-2.00
2022-12-09T18:35:49.004Z,-2.28
2022-12-09T18:38:15.638Z,-2.21
2022-12-09T18:41:00.932Z,-2.08
2022-12-09T18:43:28.778Z,-1.98
2022-12-09T18:45:55.333Z,-1.91
2022-12-09T18:48:21.853Z,-1.92
2022-12-09T18:50:48.321Z,-1.92
2022-12-09T18:53:15.275Z,-1.95
2022-12-09T18:55:42.412Z,-2.05
2022-12-09T18:58:08.873Z,-2.12
2022-12-09T19:00:35.943Z,-2.06
2022-12-09T19:03:02.483Z,-2.11
2022-12-09T19:05:29.111Z,-2.09
2022-12-09T19:07:55.593Z,-2.17
2022-12-09T19:10:22.065Z,-2.10
2022-12-09T19:12:52.661Z,-2.05
2022-12-09T19:15:22.971Z,-2.12
2022-12-09T19:17:49.501Z,-2.08
2022-12-09T19:20:16.115Z,-2.07
2022-12-09T19:22:42.652Z,-2.08
2022-12-09T19:25:09.160Z,-2.10
2022-12-09T19:27:35.645Z,-2.14
2022-12-09T19:30:02.258Z,-2.12
2022-12-09T19:32:52.602Z,-2.11
2022-12-09T19:35:15.527Z,-2.16
2022-12-09T19:37:42.058Z,-2.15
2022-12-09T19:40:09.639Z,-2.20
2022-12-09T19:42:36.848Z,-2.16
2022-12-09T19:45:06.486Z,-2.19
2022-12-09T19:47:35.697Z,-2.34
2022-12-09T19:50:02.163Z,-2.61
2022-12-09T19:52:28.633Z,-2.46
2022-12-09T19:54:55.091Z,-2.21
2022-12-09T19:57:22.407Z,-2.18
2022-12-09T19:59:48.914Z,-2.19
2022-12-09T20:02:15.522Z,-2.22
2022-12-09T20:04:50.774Z,-2.23
2022-12-09T20:07:18.150Z,-2.27
2022-12-09T20:09:44.623Z,-2.31
2022-12-09T20:12:12.071Z,-2.42
2022-12-09T20:14:38.958Z,-2.60
2022-12-09T20:17:05.677Z,-2.61
2022-12-09T20:19:32.338Z,-2.58
2022-12-09T20:21:58.873Z,-2.32
2022-12-09T20:24:26.666Z,-2.31
2022-12-09T20:26:53.227Z,-2.34
2022-12-09T20:29:19.707Z,-2.39
2022-12-09T20:31:46.273Z,-2.39
2022-12-09T20:34:14.763Z,-2.42
2022-12-09T20:36:42.324Z,-2.61
2022-12-09T20:39:15.100Z,-2.58
2022-12-09T20:41:42.317Z,-2.62
2022-12-09T20:44:09.548Z,-2.51
2022-12-09T20:46:36.358Z,-2.61
2022-12-09T20:49:02.835Z,-2.74
2022-12-09T20:51:34.497Z,-2.81
2022-12-09T20:54:01.045Z,-2.73
2022-12-09T20:56:28.254Z,-2.67
2022-12-09T20:58:54.974Z,-2.66
2022-12-09T21:01:27.353Z,-2.46
2022-12-09T21:03:54.463Z,-2.42
2022-12-09T21:06:24.232Z,-2.42
2022-12-09T21:08:51.425Z,-2.48
2022-12-09T21:11:19.894Z,-2.47
2022-12-09T21:13:51.511Z,-2.53
2022-12-09T21:16:20.338Z,-2.58
2022-12-09T21:18:47.833Z,-2.64
2022-12-09T21:21:14.365Z,-2.57
2022-12-09T21:23:40.873Z,-2.43
2022-12-09T21:26:09.940Z,-2.45
2022-12-09T21:28:37.006Z,-2.55
2022-12-09T21:31:11.127Z,-2.52
2022-12-09T21:33:37.895Z,-2.62
2022-12-09T21:36:08.990Z,-2.75
2022-12-09T21:38:36.082Z,-2.69
2022-12-09T21:41:03.849Z,-2.45
2022-12-09T21:43:31.737Z,-2.46
2022-12-09T21:46:01.802Z,-2.38
2022-12-09T21:48:28.849Z,-2.38
2022-12-09T21:50:58.867Z,-2.37
2022-12-09T21:53:25.213Z,-2.43
2022-12-09T21:55:52.004Z,-2.47
2022-12-09T21:58:18.533Z,-2.42
2022-12-09T22:00:45.011Z,-2.40
2022-12-09T22:03:11.494Z,-2.48
2022-12-09T22:05:37.959Z,-2.56
2022-12-09T22:08:04.789Z,-2.61
2022-12-09T22:10:31.335Z,-2.61
2022-12-09T22:12:57.838Z,-2.67
2022-12-09T22:15:24.346Z,-2.72
2022-12-09T22:17:50.802Z,-2.66
2022-12-09T22:23:03.798Z,-2.09
2022-12-09T22:25:30.245Z,-1.98
2022-12-09T22:27:57.231Z,-1.98
2022-12-09T22:30:23.752Z,-1.87
2022-12-09T22:32:51.029Z,-1.81
2022-12-09T22:35:17.690Z,-1.75
2022-12-09T22:37:44.405Z,-1.79
2022-12-09T22:40:11.411Z,-1.70
2022-12-09T22:42:37.967Z,-1.72
2022-12-09T22:45:05.707Z,-1.59
2022-12-09T22:47:32.199Z,-1.57
2022-12-09T22:49:58.881Z,-1.57
2022-12-09T22:52:25.354Z,-1.68
2022-12-09T22:54:51.867Z,-1.77
2022-12-09T22:57:18.326Z,-1.73
2022-12-09T22:59:44.817Z,-1.57
2022-12-09T23:02:11.335Z,-1.48
2022-12-09T23:04:38.106Z,-1.30
2022-12-09T23:07:04.572Z,-1.23
2022-12-09T23:09:31.319Z,-1.24
2022-12-09T23:11:57.910Z,-1.28
2022-12-09T23:14:24.438Z,-1.39
2022-12-09T23:16:50.923Z,-1.23
2022-12-09T23:19:17.678Z,-1.18
2022-12-09T23:21:44.187Z,-1.23
2022-12-09T23:24:12.140Z,-1.19
2022-12-09T23:26:39.412Z,-1.19
2022-12-09T23:29:06.710Z,-1.33
2022-12-09T23:31:34.703Z,-1.37
2022-12-09T23:34:01.482Z,-1.46
2022-12-09T23:36:33.244Z,-1.43
2022-12-09T23:39:00.497Z,-1.14
2022-12-09T23:41:27.003Z,-1.07
2022-12-09T23:43:53.468Z,-1.10
2022-12-09T23:46:21.317Z,-1.24
2022-12-09T23:48:48.369Z,-1.37
2022-12-09T23:51:15.668Z,-1.39
2022-12-09T23:53:42.426Z,-1.51
2022-12-09T23:56:16.860Z,-1.30
2022-12-09T23:58:43.329Z,-1.19
